Time;durP1;ratioP1;P1;durP2;ratioP2;P2;SDS_P1;SDS_P2;PMS_P1;PMS_P2;Temp;Humidity;BMP_temperature;BMP_pressure;BME280_temperature;BME280_humidity;BME280_pressure;Samples;Min_cycle;Max_cycle;Signal;HPM_P1;HPM_P2
2021/12/27 00:01:58;;;;;;;3.00;1.58;;;17.60;41.80;;;;;;5028442;28;20045;-82
2021/12/27 00:04:24;;;;;;;3.38;1.60;;;17.70;41.80;;;;;;5028203;28;20092;-82
2021/12/27 00:06:49;;;;;;;3.20;1.40;;;17.70;41.80;;;;;;4987403;28;20057;-82
2021/12/27 00:09:15;;;;;;;3.40;1.52;;;17.60;41.80;;;;;;5029301;28;20220;-82
2021/12/27 00:11:40;;;;;;;3.15;1.70;;;17.60;41.80;;;;;;5027569;28;20485;-82
2021/12/27 00:14:06;;;;;;;2.85;1.27;;;18.00;42.00;;;;;;5028258;28;20704;-82
2021/12/27 00:16:31;;;;;;;2.60;1.40;;;17.60;41.80;;;;;;5028188;28;20053;-82
2021/12/27 00:18:57;;;;;;;2.78;1.50;;;17.70;41.80;;;;;;5027620;28;20057;-82
2021/12/27 00:21:23;;;;;;;3.30;1.63;;;17.60;41.80;;;;;;5028537;28;20478;-83
2021/12/27 00:23:49;;;;;;;2.95;1.45;;;17.60;41.80;;;;;;5027517;28;20062;-82
2021/12/27 00:26:14;;;;;;;2.63;1.30;;;17.60;41.80;;;;;;5028317;28;20561;-82
2021/12/27 00:28:40;;;;;;;2.35;1.20;;;17.60;41.80;;;;;;5028193;28;20197;-82
2021/12/27 00:31:05;;;;;;;2.60;1.50;;;17.60;41.80;;;;;;5027269;28;20401;-82
2021/12/27 00:33:31;;;;;;;2.92;1.48;;;17.60;41.80;;;;;;5028262;28;20061;-82
2021/12/27 00:35:56;;;;;;;3.40;1.52;;;17.60;41.80;;;;;;5029362;28;20064;-82
2021/12/27 00:38:22;;;;;;;2.95;1.40;;;17.60;41.80;;;;;;5027534;28;20095;-82
2021/12/27 00:40:47;;;;;;;3.30;1.55;;;17.60;41.80;;;;;;5030407;28;20056;-82
2021/12/27 00:43:13;;;;;;;2.60;1.50;;;17.60;41.80;;;;;;5025942;28;20049;-82
2021/12/27 00:45:39;;;;;;;2.53;1.40;;;17.60;41.80;;;;;;4993395;28;20054;-82
2021/12/27 00:48:04;;;;;;;3.25;1.60;;;17.60;41.80;;;;;;4992857;28;20133;-82
2021/12/27 00:50:30;;;;;;;3.53;1.60;;;17.60;41.80;;;;;;4992675;28;20537;-82
2021/12/27 00:52:55;;;;;;;2.92;1.52;;;17.60;41.80;;;;;;4988332;28;20111;-82
2021/12/27 00:55:21;;;;;;;3.38;1.50;;;17.60;41.80;;;;;;4992444;28;20050;-82
2021/12/27 00:57:47;;;;;;;3.45;1.60;;;17.60;41.80;;;;;;4976327;28;20050;-82
2021/12/27 01:00:15;;;;;;;2.67;1.30;;;17.60;41.80;;;;;;4991583;28;20050;-82
2021/12/27 01:02:40;;;;;;;2.97;1.42;;;17.60;41.80;;;;;;4992408;28;20433;-82
2021/12/27 01:05:06;;;;;;;2.83;1.40;;;17.60;41.80;;;;;;4992527;28;20054;-82
2021/12/27 01:07:32;;;;;;;2.55;1.20;;;17.60;41.80;;;;;;4991730;28;20097;-82
2021/12/27 01:15:10;;;;;;;3.17;1.63;;;17.60;41.90;;;;;;5007625;28;20061;-82
2021/12/27 01:17:37;;;;;;;3.50;1.65;;;17.60;41.80;;;;;;5032715;28;20401;-81
2021/12/27 01:20:04;;;;;;;3.42;1.55;;;17.60;41.90;;;;;;5054071;28;20139;-81
2021/12/27 01:22:29;;;;;;;2.83;1.40;;;17.60;41.90;;;;;;5054850;28;20598;-81
2021/12/27 01:24:55;;;;;;;3.20;1.60;;;17.60;41.90;;;;;;5054972;28;20056;-81
2021/12/27 01:27:20;;;;;;;3.25;1.65;;;17.60;41.80;;;;;;5054178;28;20063;-81
2021/12/27 01:29:46;;;;;;;2.83;1.40;;;17.60;41.90;;;;;;5054499;28;20044;-81
2021/12/27 01:32:11;;;;;;;3.08;1.73;;;17.60;41.90;;;;;;5054642;28;20139;-82
2021/12/27 01:34:37;;;;;;;2.75;1.30;;;17.60;41.90;;;;;;5053431;28;20044;-81
2021/12/27 01:37:03;;;;;;;2.50;1.40;;;17.60;41.90;;;;;;5054732;28;20063;-81
2021/12/27 01:39:28;;;;;;;3.15;1.50;;;17.60;41.90;;;;;;5054364;28;20052;-81
2021/12/27 01:41:54;;;;;;;3.00;1.40;;;17.60;41.90;;;;;;5053725;28;20045;-81
2021/12/27 01:44:19;;;;;;;3.20;1.70;;;17.60;41.90;;;;;;5054235;28;20048;-81
2021/12/27 01:46:45;;;;;;;2.80;1.45;;;17.60;41.90;;;;;;5054298;28;20052;-81
2021/12/27 01:49:11;;;;;;;2.85;1.38;;;17.60;41.90;;;;;;5053447;28;20052;-81
2021/12/27 01:51:38;;;;;;;2.38;1.30;;;17.60;41.90;;;;;;5054398;28;20048;-81
2021/12/27 01:54:04;;;;;;;2.95;1.45;;;17.60;41.90;;;;;;5071213;28;20134;-81
2021/12/27 01:56:29;;;;;;;2.95;1.60;;;17.60;42.00;;;;;;5053264;28;20119;-81
2021/12/27 01:58:55;;;;;;;3.40;1.85;;;17.60;41.90;;;;;;5053866;28;20052;-81
2021/12/27 02:01:21;;;;;;;3.25;1.77;;;17.60;42.00;;;;;;5054041;28;20135;-81
2021/12/27 02:03:47;;;;;;;2.90;1.45;;;17.60;41.90;;;;;;5053417;28;20814;-81
2021/12/27 02:06:13;;;;;;;3.03;1.50;;;17.60;42.00;;;;;;5037188;28;20106;-81
2021/12/27 02:08:41;;;;;;;3.97;1.60;;;17.60;42.00;;;;;;5054083;28;20060;-81
2021/12/27 02:11:07;;;;;;;3.47;1.58;;;17.60;41.90;;;;;;5070067;28;20048;-81
2021/12/27 02:13:33;;;;;;;3.47;1.65;;;17.60;42.00;;;;;;5070221;28;20056;-81
2021/12/27 02:15:59;;;;;;;3.08;1.73;;;17.50;41.80;;;;;;5070468;28;20045;-81
2021/12/27 02:18:24;;;;;;;3.35;1.50;;;17.60;41.90;;;;;;5051507;28;20600;-81
2021/12/27 02:20:50;;;;;;;2.88;1.38;;;17.50;41.90;;;;;;5053350;28;20415;-81
2021/12/27 02:23:16;;;;;;;4.07;1.70;;;17.50;41.90;;;;;;5053012;28;20036;-81
2021/12/27 02:25:51;;;;;;;2.88;1.35;;;17.50;41.90;;;;;;5070096;28;20083;-81
2021/12/27 02:28:17;;;;;;;3.47;1.70;;;17.50;41.90;;;;;;5053299;28;20127;-81
2021/12/27 02:30:43;;;;;;;2.88;1.45;;;17.60;42.00;;;;;;5069453;28;20052;-81
2021/12/27 02:33:09;;;;;;;2.97;1.77;;;17.60;42.00;;;;;;5070101;28;20304;-81
2021/12/27 02:35:40;;;;;;;3.28;1.70;;;17.60;42.00;;;;;;5053320;28;20052;-81
2021/12/27 02:38:16;;;;;;;3.50;1.50;;;17.50;41.90;;;;;;5052792;28;20045;-81
2021/12/27 02:40:42;;;;;;;3.78;1.85;;;17.60;42.00;;;;;;5053470;28;20488;-81
2021/12/27 02:43:10;;;;;;;3.25;1.60;;;17.50;42.00;;;;;;5053346;28;20044;-81
2021/12/27 02:45:43;;;;;;;3.03;1.60;;;17.50;42.00;;;;;;5052547;28;20131;-81
2021/12/27 02:48:09;;;;;;;3.60;1.80;;;17.50;41.90;;;;;;5053027;28;20041;-81
2021/12/27 02:50:35;;;;;;;3.42;1.55;;;17.50;42.00;;;;;;5053344;28;20059;-81
2021/12/27 02:53:01;;;;;;;3.15;1.50;;;17.50;41.90;;;;;;5018630;28;20055;-81
2021/12/27 02:55:26;;;;;;;3.15;1.73;;;17.50;42.00;;;;;;5052513;28;20049;-81
2021/12/27 02:57:52;;;;;;;3.35;1.73;;;17.50;42.00;;;;;;5052400;28;20044;-81
2021/12/27 03:00:28;;;;;;;3.40;1.70;;;17.50;41.90;;;;;;5052198;28;20075;-81
2021/12/27 03:02:55;;;;;;;3.50;1.90;;;17.50;42.00;;;;;;5068983;28;20506;-81
2021/12/27 03:05:21;;;;;;;3.50;1.65;;;17.50;42.00;;;;;;5069502;28;20048;-81
2021/12/27 03:07:47;;;;;;;3.05;1.42;;;17.50;42.00;;;;;;5051998;28;20066;-81
2021/12/27 03:10:14;;;;;;;3.05;1.65;;;17.50;42.00;;;;;;5052923;28;20041;-81
2021/12/27 03:12:40;;;;;;;2.70;1.40;;;17.50;42.00;;;;;;5051797;28;20048;-81
2021/12/27 03:15:09;;;;;;;3.67;1.98;;;17.50;42.00;;;;;;5052578;28;20117;-81
2021/12/27 03:17:36;;;;;;;3.55;1.85;;;17.50;42.00;;;;;;5052734;28;20102;-80
2021/12/27 03:20:06;;;;;;;3.97;1.60;;;17.50;42.00;;;;;;5051613;28;20067;-81
2021/12/27 03:22:31;;;;;;;3.08;1.60;;;17.50;42.00;;;;;;5052309;28;20520;-82
2021/12/27 03:24:57;;;;;;;3.20;1.55;;;17.50;42.10;;;;;;5052293;28;20123;-81
2021/12/27 03:27:23;;;;;;;3.45;1.88;;;17.50;42.00;;;;;;5069634;28;20139;-81
2021/12/27 03:29:48;;;;;;;3.03;1.60;;;17.50;42.00;;;;;;5052245;28;20074;-81
2021/12/27 03:32:14;;;;;;;3.78;1.98;;;17.50;42.00;;;;;;5051978;28;20040;-81
2021/12/27 03:34:52;;;;;;;3.10;1.60;;;17.50;42.00;;;;;;5051614;28;20052;-81
2021/12/27 03:37:18;;;;;;;3.10;1.55;;;17.50;42.10;;;;;;5070672;28;20054;-81
2021/12/27 03:39:43;;;;;;;3.63;1.45;;;17.50;42.00;;;;;;5052381;28;20044;-81
2021/12/27 03:42:09;;;;;;;2.88;1.42;;;17.50;42.10;;;;;;5051594;28;20052;-81
2021/12/27 03:44:34;;;;;;;2.70;1.60;;;17.50;42.10;;;;;;5052222;28;20094;-81
2021/12/27 03:47:00;;;;;;;3.40;1.75;;;17.50;42.10;;;;;;5052131;28;20055;-81
2021/12/27 03:49:25;;;;;;;2.40;1.30;;;17.50;42.10;;;;;;5051373;28;20506;-81
2021/12/27 03:51:51;;;;;;;3.33;1.70;;;17.50;42.10;;;;;;5051868;28;20595;-81
2021/12/27 03:54:16;;;;;;;3.55;1.65;;;17.50;42.10;;;;;;5051975;28;20045;-81
2021/12/27 03:56:42;;;;;;;3.15;1.70;;;17.50;42.20;;;;;;5051245;28;20040;-81
2021/12/27 03:59:21;;;;;;;3.03;1.50;;;17.50;42.20;;;;;;5069945;28;20071;-81
2021/12/27 04:01:46;;;;;;;3.20;1.60;;;17.50;42.20;;;;;;5051327;28;20055;-81
2021/12/27 04:04:12;;;;;;;2.88;1.65;;;17.50;42.20;;;;;;5051961;28;20048;-81
2021/12/27 04:06:38;;;;;;;2.78;1.42;;;17.50;42.20;;;;;;5069773;28;20048;-81
2021/12/27 04:09:03;;;;;;;2.92;1.45;;;17.50;42.30;;;;;;5051120;28;20086;-81
2021/12/27 04:11:29;;;;;;;2.75;1.60;;;17.50;42.30;;;;;;5051946;28;20062;-81
2021/12/27 04:13:55;;;;;;;3.13;1.60;;;17.50;42.30;;;;;;5051371;28;20135;-84
2021/12/27 04:16:21;;;;;;;3.63;1.90;;;17.50;42.30;;;;;;5067600;28;20404;-81
2021/12/27 04:18:47;;;;;;;2.83;1.40;;;17.50;42.30;;;;;;5069373;28;20109;-81
2021/12/27 04:21:12;;;;;;;2.72;1.52;;;17.50;42.30;;;;;;5051775;28;20392;-81
2021/12/27 04:23:38;;;;;;;2.75;1.40;;;17.50;42.40;;;;;;5068838;28;20174;-81
2021/12/27 04:26:04;;;;;;;3.20;1.70;;;17.60;42.40;;;;;;5051428;28;20527;-81
2021/12/27 04:28:29;;;;;;;3.22;1.70;;;17.60;42.40;;;;;;5051707;28;20059;-82
2021/12/27 04:30:55;;;;;;;3.67;1.63;;;17.60;42.40;;;;;;5050735;28;20052;-82
2021/12/27 04:33:20;;;;;;;3.15;1.80;;;17.60;42.40;;;;;;5051397;28;20411;-82
2021/12/27 04:35:46;;;;;;;3.65;2.08;;;17.60;43.20;;;;;;5051552;28;20045;-81
2021/12/27 04:38:11;;;;;;;3.78;1.77;;;17.60;42.50;;;;;;5050972;28;20059;-81
2021/12/27 04:40:38;;;;;;;3.08;1.80;;;17.60;42.50;;;;;;5050283;28;20056;-81
2021/12/27 04:43:14;;;;;;;3.65;1.83;;;17.60;42.50;;;;;;5051307;28;20070;-81
2021/12/27 04:45:41;;;;;;;3.50;1.70;;;17.60;42.60;;;;;;5067609;28;20048;-81
2021/12/27 04:48:07;;;;;;;3.30;1.77;;;17.60;42.50;;;;;;5051453;28;20786;-82
2021/12/27 04:50:32;;;;;;;4.05;2.20;;;17.60;42.50;;;;;;5069401;28;20047;-82
2021/12/27 04:52:58;;;;;;;3.03;1.77;;;17.60;42.60;;;;;;5042402;28;20082;-82
2021/12/27 04:55:24;;;;;;;3.38;1.83;;;17.70;42.60;;;;;;5051318;28;20049;-81
2021/12/27 04:57:50;;;;;;;2.92;1.55;;;17.70;42.60;;;;;;5069141;28;20036;-82
2021/12/27 05:00:16;;;;;;;4.28;2.10;;;17.70;42.60;;;;;;5068311;28;20067;-81
2021/12/27 05:02:41;;;;;;;3.47;2.13;;;17.70;42.60;;;;;;5051150;28;20468;-81
2021/12/27 05:05:07;;;;;;;3.38;1.92;;;17.70;42.60;;;;;;5050757;28;20052;-82
2021/12/27 05:07:32;;;;;;;2.95;1.58;;;17.80;42.70;;;;;;5050835;28;20472;-81
2021/12/27 05:09:58;;;;;;;4.03;2.33;;;17.80;42.70;;;;;;5051321;28;20049;-81
2021/12/27 05:12:23;;;;;;;3.08;1.70;;;17.70;42.60;;;;;;5050102;28;20055;-81
2021/12/27 05:14:49;;;;;;;3.58;1.80;;;17.80;42.70;;;;;;5051120;28;20137;-82
2021/12/27 05:17:14;;;;;;;4.03;1.98;;;17.80;42.70;;;;;;5051084;28;20468;-81
2021/12/27 05:19:40;;;;;;;4.90;2.15;;;17.80;42.70;;;;;;5050214;28;20408;-81
2021/12/27 05:22:05;;;;;;;3.40;2.03;;;17.80;42.70;;;;;;5051457;28;20055;-81
2021/12/27 05:24:31;;;;;;;4.10;2.10;;;17.90;42.70;;;;;;5051474;28;20052;-81
2021/12/27 05:26:57;;;;;;;3.42;1.90;;;17.80;42.70;;;;;;5052938;28;20044;-82
2021/12/27 05:29:22;;;;;;;3.38;1.92;;;17.90;42.70;;;;;;5054715;28;20047;-82
2021/12/27 05:31:48;;;;;;;3.95;1.98;;;17.80;42.70;;;;;;5054790;28;20102;-82
2021/12/27 05:34:14;;;;;;;3.58;1.88;;;17.90;42.70;;;;;;5053650;28;20059;-82
2021/12/27 05:36:42;;;;;;;3.60;1.80;;;17.90;42.70;;;;;;5054510;28;20051;-82
2021/12/27 05:39:11;;;;;;;3.35;1.90;;;17.90;42.70;;;;;;5054448;28;20127;-82
2021/12/27 05:41:36;;;;;;;3.58;1.90;;;17.90;42.70;;;;;;5053864;28;20056;-82
2021/12/27 05:44:02;;;;;;;3.80;2.00;;;17.90;42.60;;;;;;5072354;28;20602;-81
2021/12/27 05:46:28;;;;;;;3.35;1.95;;;17.90;42.60;;;;;;5054488;28;20063;-81
2021/12/27 05:48:53;;;;;;;4.00;1.98;;;17.90;42.60;;;;;;5071437;28;20127;-82
2021/12/27 05:51:19;;;;;;;3.28;1.95;;;17.90;42.60;;;;;;5054455;28;20481;-82
2021/12/27 05:53:44;;;;;;;3.60;1.73;;;17.90;42.60;;;;;;5053929;28;20044;-82
2021/12/27 05:56:10;;;;;;;3.72;1.85;;;17.90;42.50;;;;;;5053370;28;20044;-82
2021/12/27 05:58:35;;;;;;;3.17;1.83;;;18.00;42.60;;;;;;5072309;28;20490;-82
2021/12/27 06:01:01;;;;;;;3.75;1.85;;;18.00;42.60;;;;;;5053975;28;20072;-82
2021/12/27 06:03:26;;;;;;;3.63;1.85;;;18.00;42.60;;;;;;5053625;28;20143;-82
2021/12/27 06:05:52;;;;;;;3.22;1.73;;;17.90;42.50;;;;;;5053816;28;20494;-83
2021/12/27 06:08:17;;;;;;;3.75;1.58;;;18.00;42.60;;;;;;5051753;28;20057;-83
2021/12/27 06:10:43;;;;;;;3.55;2.13;;;18.00;42.60;;;;;;5053528;28;20044;-83
2021/12/27 06:13:09;;;;;;;3.55;1.83;;;18.00;42.60;;;;;;5053734;28;20060;-83
2021/12/27 06:15:34;;;;;;;3.25;1.67;;;18.00;42.60;;;;;;5070976;28;20113;-83
2021/12/27 06:18:00;;;;;;;3.30;1.80;;;18.00;42.60;;;;;;5046291;28;20124;-82
2021/12/27 06:20:25;;;;;;;3.20;1.60;;;18.00;42.60;;;;;;5030566;28;20049;-83
2021/12/27 06:22:53;;;;;;;3.60;2.00;;;18.00;42.60;;;;;;5030066;28;20041;-82
2021/12/27 06:25:18;;;;;;;3.10;1.70;;;18.00;42.60;;;;;;5030474;28;20096;-83
2021/12/27 06:27:44;;;;;;;3.65;1.80;;;18.00;42.60;;;;;;5030324;28;20600;-83
2021/12/27 06:30:11;;;;;;;3.90;1.77;;;18.00;42.60;;;;;;5028302;28;20137;-83
2021/12/27 06:32:36;;;;;;;3.20;1.60;;;18.00;42.60;;;;;;5019574;28;20050;-83
2021/12/27 06:35:03;;;;;;;3.78;1.90;;;18.00;42.50;;;;;;5010727;28;20045;-83
2021/12/27 06:37:29;;;;;;;3.42;1.83;;;18.00;42.60;;;;;;5029515;28;20067;-83
2021/12/27 06:39:54;;;;;;;3.30;1.70;;;18.00;42.60;;;;;;5028427;28;20053;-82
2021/12/27 06:42:20;;;;;;;3.42;1.67;;;18.00;42.60;;;;;;5030009;28;20053;-83
2021/12/27 06:44:45;;;;;;;3.05;1.63;;;18.00;42.60;;;;;;5029604;28;20052;-83
2021/12/27 06:47:11;;;;;;;3.30;1.70;;;18.00;42.60;;;;;;5026191;28;20124;-83
2021/12/27 06:49:37;;;;;;;2.95;1.60;;;18.00;42.60;;;;;;5019654;28;20144;-83
2021/12/27 06:52:03;;;;;;;3.20;1.77;;;18.00;42.60;;;;;;5021439;28;20060;-82
2021/12/27 06:54:29;;;;;;;3.28;2.00;;;18.00;42.60;;;;;;5007763;28;20060;-83
2021/12/27 06:56:57;;;;;;;3.60;1.90;;;18.10;42.70;;;;;;5029452;28;20072;-82
2021/12/27 06:59:25;;;;;;;2.75;1.48;;;18.00;42.60;;;;;;5028887;28;20465;-81
2021/12/27 07:01:50;;;;;;;3.55;1.80;;;18.00;42.70;;;;;;5022417;28;20147;-80
2021/12/27 07:04:16;;;;;;;3.75;1.88;;;18.10;42.60;;;;;;5036264;28;20133;-81
2021/12/27 07:06:42;;;;;;;2.53;1.40;;;18.10;42.70;;;;;;4990077;28;20062;-82
2021/12/27 07:09:07;;;;;;;3.10;1.60;;;18.10;42.60;;;;;;4992532;28;20105;-83
2021/12/27 07:11:33;;;;;;;3.35;1.60;;;18.10;42.60;;;;;;4991396;28;20046;-83
2021/12/27 07:13:58;;;;;;;3.42;1.73;;;18.00;42.60;;;;;;4989160;28;20050;-83
2021/12/27 07:16:26;;;;;;;2.95;1.63;;;18.10;42.60;;;;;;4989829;28;20064;-82
2021/12/27 07:18:52;;;;;;;3.20;1.80;;;18.10;42.60;;;;;;5002527;28;20391;-81
2021/12/27 07:21:18;;;;;;;3.05;1.73;;;18.00;42.50;;;;;;5029401;28;20499;-83
2021/12/27 07:23:44;;;;;;;3.45;1.90;;;18.00;42.50;;;;;;5006230;28;20077;-81
2021/12/27 07:26:10;;;;;;;2.85;1.50;;;18.00;42.50;;;;;;5009090;28;20092;-83
2021/12/27 07:28:35;;;;;;;3.83;1.65;;;18.00;42.50;;;;;;5004318;28;20565;-83
2021/12/27 07:31:01;;;;;;;3.10;1.70;;;18.00;42.50;;;;;;5009214;28;20052;-83
2021/12/27 07:33:26;;;;;;;4.80;1.80;;;18.10;42.50;;;;;;5008114;28;20500;-83
2021/12/27 07:35:52;;;;;;;2.90;1.42;;;18.00;42.40;;;;;;5008869;28;20058;-83
2021/12/27 07:38:17;;;;;;;2.97;1.50;;;18.10;42.50;;;;;;5007044;28;20034;-83
2021/12/27 07:40:43;;;;;;;3.80;1.98;;;18.10;42.40;;;;;;5004325;28;20084;-83
2021/12/27 07:43:08;;;;;;;3.70;2.00;;;18.00;42.40;;;;;;5004687;28;20483;-83
2021/12/27 07:45:34;;;;;;;3.85;1.88;;;18.00;42.40;;;;;;5006738;28;20046;-84
2021/12/27 07:48:00;;;;;;;3.63;1.85;;;18.00;42.30;;;;;;5009522;28;20053;-83
2021/12/27 07:50:25;;;;;;;3.65;1.60;;;18.00;42.40;;;;;;5008643;28;20054;-83
2021/12/27 07:52:51;;;;;;;3.58;2.00;;;18.00;42.30;;;;;;5010207;28;20073;-83
2021/12/27 07:55:17;;;;;;;3.75;2.08;;;18.00;42.30;;;;;;5008087;28;20473;-83
2021/12/27 07:57:43;;;;;;;3.70;1.60;;;18.00;42.30;;;;;;5009007;28;20041;-81
2021/12/27 08:00:08;;;;;;;3.30;1.58;;;18.00;42.30;;;;;;4992610;28;20516;-83
2021/12/27 08:02:34;;;;;;;3.63;2.08;;;18.00;42.30;;;;;;5008107;28;20046;-82
2021/12/27 08:05:00;;;;;;;3.47;1.92;;;18.00;42.30;;;;;;5010216;28;20139;-84
2021/12/27 08:07:25;;;;;;;3.58;1.90;;;18.00;42.30;;;;;;5009868;28;20092;-84
2021/12/27 08:09:51;;;;;;;3.70;1.80;;;18.00;42.30;;;;;;5008143;28;20053;-82
2021/12/27 08:12:16;;;;;;;3.40;1.77;;;18.00;42.30;;;;;;4992823;28;20058;-79
2021/12/27 08:14:42;;;;;;;3.35;1.88;;;18.00;42.30;;;;;;4989229;28;20054;-82
2021/12/27 08:17:07;;;;;;;3.83;1.73;;;17.90;42.20;;;;;;4998142;28;20404;-90
2021/12/27 08:19:33;;;;;;;4.50;2.10;;;17.90;42.30;;;;;;5028584;28;20045;-86
2021/12/27 08:21:59;;;;;;;4.72;1.90;;;17.90;42.40;;;;;;5027923;28;20124;-85
2021/12/27 08:24:24;;;;;;;4.50;2.08;;;17.90;42.30;;;;;;5028624;28;20120;-85
2021/12/27 08:26:50;;;;;;;4.97;1.90;;;17.90;42.30;;;;;;5020761;28;20054;-84
2021/12/27 08:29:15;;;;;;;4.00;2.10;;;17.90;42.30;;;;;;4994806;28;20054;-83
2021/12/27 08:31:41;;;;;;;5.20;2.25;;;17.90;42.30;;;;;;4999043;28;20572;-86
2021/12/27 08:34:07;;;;;;;4.90;2.00;;;17.90;42.30;;;;;;4996954;28;20589;-85
2021/12/27 08:36:32;;;;;;;4.13;2.03;;;17.90;42.30;;;;;;4996623;28;20053;-85
2021/12/27 08:38:58;;;;;;;4.35;2.13;;;17.90;42.30;;;;;;4986917;28;20061;-85
2021/12/27 08:41:29;;;;;;;5.00;2.40;;;17.90;42.40;;;;;;5006952;28;20504;-85
2021/12/27 08:44:00;;;;;;;4.10;2.00;;;17.90;42.40;;;;;;5006179;28;20740;-85
2021/12/27 08:46:26;;;;;;;4.53;1.90;;;17.90;42.40;;;;;;5006032;28;20449;-85
2021/12/27 08:48:51;;;;;;;3.85;1.85;;;17.90;42.40;;;;;;5006108;28;20119;-85
2021/12/27 08:51:17;;;;;;;3.83;1.83;;;17.90;42.40;;;;;;4994670;28;20053;-85
2021/12/27 08:53:42;;;;;;;5.32;2.17;;;17.90;42.40;;;;;;5006426;28;20096;-85
2021/12/27 08:56:08;;;;;;;4.13;1.83;;;17.90;42.40;;;;;;5007966;28;20470;-85
2021/12/27 08:58:34;;;;;;;3.72;1.75;;;17.90;42.40;;;;;;5008285;28;20085;-85
2021/12/27 09:00:59;;;;;;;4.07;2.20;;;17.90;42.50;;;;;;5004779;28;20050;-85
2021/12/27 09:03:25;;;;;;;4.32;1.95;;;17.90;42.40;;;;;;5011548;28;20046;-86
2021/12/27 09:05:50;;;;;;;4.25;2.03;;;17.90;42.50;;;;;;5011308;28;20049;-86
2021/12/27 09:08:16;;;;;;;4.22;2.10;;;17.90;42.40;;;;;;5012086;28;20058;-85
2021/12/27 09:10:42;;;;;;;4.60;1.70;;;17.90;42.50;;;;;;5007773;28;20045;-85
2021/12/27 09:13:07;;;;;;;4.90;2.15;;;17.90;42.50;;;;;;5002602;28;20052;-86
2021/12/27 09:15:33;;;;;;;4.78;2.10;;;17.90;42.50;;;;;;5007992;28;20092;-86
2021/12/27 09:17:58;;;;;;;4.35;1.80;;;17.90;42.50;;;;;;5006939;28;20053;-85
2021/12/27 09:20:26;;;;;;;5.38;1.80;;;17.90;42.50;;;;;;4996152;28;20049;-85
2021/12/27 09:22:51;;;;;;;4.85;1.80;;;17.90;42.50;;;;;;4991217;28;20045;-86
2021/12/27 09:25:17;;;;;;;4.47;2.20;;;17.90;42.50;;;;;;5015559;28;20061;-85
2021/12/27 09:27:43;;;;;;;3.85;1.83;;;17.90;42.50;;;;;;5028746;28;20053;-85
2021/12/27 09:30:09;;;;;;;4.32;2.13;;;17.90;42.50;;;;;;5027469;28;20060;-85
2021/12/27 09:32:34;;;;;;;3.85;2.03;;;17.90;42.50;;;;;;5026474;28;20041;-86
2021/12/27 09:35:00;;;;;;;4.68;2.05;;;17.90;42.50;;;;;;5030773;28;20085;-82
2021/12/27 09:37:25;;;;;;;5.32;2.33;;;17.80;42.50;;;;;;5003328;28;20056;-85
2021/12/27 09:39:53;;;;;;;4.40;2.08;;;17.90;42.50;;;;;;4990989;28;20046;-86
2021/12/27 09:42:26;;;;;;;3.42;1.70;;;17.80;42.50;;;;;;4992204;28;20062;-85
2021/12/27 09:44:53;;;;;;;4.38;2.05;;;17.90;42.40;;;;;;4992168;28;20077;-79
2021/12/27 09:47:18;;;;;;;5.78;2.53;;;17.90;42.40;;;;;;5014399;28;20056;-86
2021/12/27 09:49:44;;;;;;;5.22;2.13;;;17.80;42.40;;;;;;5031162;28;20046;-78
2021/12/27 09:52:10;;;;;;;5.18;2.63;;;17.90;42.50;;;;;;5030748;28;20072;-83
2021/12/27 09:54:35;;;;;;;6.00;2.67;;;17.80;42.50;;;;;;5030193;28;20049;-85
2021/12/27 09:57:03;;;;;;;7.50;2.78;;;17.80;42.50;;;;;;5031782;28;20045;-85
2021/12/27 09:59:29;;;;;;;7.35;2.75;;;17.80;42.60;;;;;;5030524;28;20046;-85
2021/12/27 10:01:55;;;;;;;5.32;2.30;;;17.80;42.60;;;;;;5030239;28;20061;-79
2021/12/27 10:04:20;;;;;;;7.22;2.80;;;17.80;42.60;;;;;;5029093;28;20033;-80
2021/12/27 10:06:47;;;;;;;8.02;2.60;;;18.30;42.90;;;;;;5013508;28;20060;-80
2021/12/27 10:09:13;;;;;;;4.75;2.55;;;17.70;42.60;;;;;;5029508;28;20504;-80
2021/12/27 10:11:39;;;;;;;5.32;2.58;;;17.80;42.70;;;;;;5030021;28;20057;-80
2021/12/27 10:14:10;;;;;;;5.68;2.45;;;17.70;42.70;;;;;;5028332;28;20507;-85
2021/12/27 10:16:50;;;;;;;7.82;3.53;;;17.70;42.70;;;;;;5029234;28;20049;-83
2021/12/27 10:19:16;;;;;;;7.32;2.63;;;17.70;42.80;;;;;;5027980;28;20129;-86
2021/12/27 10:21:43;;;;;;;8.43;2.40;;;17.70;42.80;;;;;;5029447;28;20053;-86
2021/12/27 10:24:16;;;;;;;5.53;2.72;;;17.70;42.90;;;;;;5027604;28;20052;-85
2021/12/27 10:26:43;;;;;;;7.10;3.05;;;17.70;42.90;;;;;;5026305;28;20053;-86
2021/12/27 10:29:19;;;;;;;6.90;2.88;;;17.70;42.90;;;;;;5029627;28;20512;-87
2021/12/27 10:32:09;;;;;;;6.50;2.75;;;17.70;43.00;;;;;;5030704;28;20072;-87
2021/12/27 10:34:45;;;;;;;6.68;2.70;;;17.60;43.00;;;;;;5004618;28;20121;-87
2021/12/27 10:37:26;;;;;;;7.70;2.75;;;17.60;43.00;;;;;;4973179;28;20126;-86
2021/12/27 10:39:56;;;;;;;6.60;2.95;;;18.80;43.70;;;;;;4980055;28;20055;-87
2021/12/27 10:42:35;;;;;;;7.70;3.20;;;17.60;43.10;;;;;;4971852;28;20046;-86
2021/12/27 10:45:18;;;;;;;7.05;2.88;;;17.60;43.10;;;;;;4975185;28;20042;-87
2021/12/27 10:47:48;;;;;;;7.25;3.60;;;17.60;43.10;;;;;;4964289;28;20046;-87
2021/12/27 10:50:22;;;;;;;6.35;2.80;;;17.50;43.10;;;;;;4991401;28;20046;-87
2021/12/27 10:53:01;;;;;;;5.25;2.38;;;17.50;43.10;;;;;;4991175;28;20046;-87
2021/12/27 10:55:31;;;;;;;6.20;2.60;;;17.50;43.20;;;;;;4991302;28;20042;-87
2021/12/27 10:58:25;;;;;;;5.68;2.75;;;17.50;43.20;;;;;;4990719;28;20062;-88
2021/12/27 11:01:01;;;;;;;8.43;3.15;;;17.50;43.20;;;;;;4991702;28;20050;-88
2021/12/27 11:03:36;;;;;;;7.60;2.83;;;17.50;43.20;;;;;;4991010;28;20138;-87
2021/12/27 11:06:03;;;;;;;10.70;3.28;;;17.50;43.20;;;;;;4990016;28;20066;-87
2021/12/27 11:08:29;;;;;;;7.20;3.42;;;17.40;43.20;;;;;;4990728;28;20038;-87
2021/12/27 11:10:55;;;;;;;7.07;3.40;;;17.40;43.20;;;;;;4990346;28;20050;-85
2021/12/27 11:13:20;;;;;;;7.85;3.05;;;17.40;43.20;;;;;;4989466;28;20066;-87
2021/12/27 11:15:46;;;;;;;8.77;3.45;;;17.40;43.20;;;;;;4990538;28;20053;-87
2021/12/27 11:18:13;;;;;;;9.30;4.22;;;18.30;43.70;;;;;;4993660;28;20103;-87
2021/12/27 11:20:47;;;;;;;8.25;3.10;;;17.40;43.30;;;;;;5009880;28;20482;-86
2021/12/27 11:23:13;;;;;;;8.13;3.83;;;17.40;43.30;;;;;;5006887;28;20069;-86
2021/12/27 11:25:41;;;;;;;7.80;3.65;;;17.40;43.30;;;;;;5006510;28;20073;-86
2021/12/27 11:28:24;;;;;;;10.73;3.90;;;17.40;43.30;;;;;;5008155;28;20121;-86
2021/12/27 11:30:50;;;;;;;6.75;2.95;;;18.40;43.80;;;;;;5008025;28;20120;-86
2021/12/27 11:33:19;;;;;;;10.80;3.88;;;17.40;43.30;;;;;;4996484;28;20157;-86
2021/12/27 11:35:51;;;;;;;8.45;3.90;;;17.40;43.30;;;;;;4989721;28;20108;-86
2021/12/27 11:38:30;;;;;;;7.88;3.70;;;17.40;43.40;;;;;;5007566;28;20049;-86
2021/12/27 11:40:55;;;;;;;8.90;3.83;;;17.30;43.30;;;;;;5007668;28;20383;-86
2021/12/27 11:43:21;;;;;;;8.30;3.55;;;17.30;43.30;;;;;;5006730;28;20068;-86
2021/12/27 11:45:51;;;;;;;8.35;3.60;;;17.30;43.30;;;;;;5025877;28;20052;-86
2021/12/27 11:48:18;;;;;;;7.38;3.20;;;17.30;43.30;;;;;;5012324;28;20050;-87
2021/12/27 11:51:10;;;;;;;7.97;2.80;;;17.30;43.40;;;;;;5011612;28;20073;-87
2021/12/27 11:53:43;;;;;;;9.37;4.07;;;17.30;43.40;;;;;;5007202;28;20129;-87
2021/12/27 11:56:09;;;;;;;8.38;3.25;;;17.30;43.50;;;;;;4677264;28;10001000;-86
2021/12/27 11:58:44;;;;;;;8.15;3.10;;;17.30;43.50;;;;;;5008643;28;20042;-86
2021/12/27 12:01:21;;;;;;;6.40;3.15;;;17.30;43.50;;;;;;5024580;28;20500;-86
2021/12/27 12:03:48;;;;;;;6.10;2.90;;;17.20;43.40;;;;;;5009029;28;20056;-87
2021/12/27 12:06:38;;;;;;;8.45;3.38;;;17.20;43.50;;;;;;4988200;28;20059;-86
2021/12/27 12:09:24;;;;;;;7.88;3.22;;;17.20;43.50;;;;;;4965087;28;20669;-87
2021/12/27 12:12:16;;;;;;;8.65;4.03;;;17.20;43.50;;;;;;4955473;28;20055;-88
2021/12/27 12:14:42;;;;;;;7.47;3.47;;;17.30;43.60;;;;;;4968025;28;20059;-87
2021/12/27 12:17:14;;;;;;;7.07;2.92;;;17.20;43.50;;;;;;4969784;28;20186;-87
2021/12/27 12:19:44;;;;;;;7.50;2.85;;;17.20;43.60;;;;;;5003381;28;20111;-87
2021/12/27 12:22:38;;;;;;;6.80;2.95;;;17.20;43.60;;;;;;5008099;28;20070;-88
2021/12/27 12:25:23;;;;;;;6.38;2.92;;;17.20;43.60;;;;;;5011940;28;20473;-81
2021/12/27 12:27:54;;;;;;;7.55;3.28;;;17.20;43.60;;;;;;5029764;28;20053;-82
2021/12/27 12:30:21;;;;;;;8.40;3.60;;;17.20;43.60;;;;;;5028740;28;20053;-83
2021/12/27 12:33:06;;;;;;;10.43;4.07;;;17.10;43.60;;;;;;5028561;28;20100;-79
2021/12/27 12:35:44;;;;;;;10.13;4.05;;;17.30;43.60;;;;;;5009623;28;20089;-80
2021/12/27 12:38:32;;;;;;;11.90;3.53;;;17.20;43.50;;;;;;4666661;28;10000910;-80
2021/12/27 12:41:15;;;;;;;11.80;4.00;;;17.20;43.40;;;;;;5088559;28;20503;-82
2021/12/27 12:43:45;;;;;;;10.75;4.30;;;17.20;43.40;;;;;;5052314;28;20128;-82
2021/12/27 12:46:18;;;;;;;9.48;3.50;;;17.20;43.50;;;;;;5087467;28;20101;-82
2021/12/27 12:48:45;;;;;;;8.48;3.70;;;17.20;43.40;;;;;;5068852;28;20193;-82
2021/12/27 12:51:10;;;;;;;8.85;3.35;;;17.20;43.40;;;;;;5053867;28;20123;-82
2021/12/27 12:53:36;;;;;;;11.75;3.83;;;17.20;43.40;;;;;;5054575;28;20139;-83